createdAt,value
2019-02-14T00:00:45.782Z,59.00
2019-02-14T00:05:49.585Z,59.37
2019-02-14T00:10:52.011Z,60.00
2019-02-14T00:15:54.991Z,53.90
2019-02-14T00:20:57.913Z,58.47
2019-02-14T00:26:00.189Z,61.60
2019-02-14T00:31:04.771Z,59.30
2019-02-14T00:36:10.062Z,57.60
2019-02-14T00:41:18.136Z,58.47
2019-02-14T00:46:23.213Z,55.37
2019-02-14T00:51:25.411Z,55.27
2019-02-14T00:56:28.467Z,57.20
2019-02-14T01:01:30.760Z,57.90
2019-02-14T01:06:34.401Z,58.33
2019-02-14T01:11:37.791Z,55.57
2019-02-14T01:16:41.277Z,61.47
2019-02-14T01:21:44.789Z,56.63
2019-02-14T01:26:50.362Z,55.57
2019-02-14T01:31:57.691Z,58.53
2019-02-14T01:37:00.265Z,62.37
2019-02-14T01:42:05.849Z,62.73
2019-02-14T01:47:10.867Z,56.40
2019-02-14T01:52:13.271Z,59.80
2019-02-14T01:57:18.328Z,58.43
2019-02-14T02:02:23.072Z,59.47
2019-02-14T02:07:28.041Z,57.10
2019-02-14T02:12:30.713Z,63.33
2019-02-14T02:17:34.233Z,62.43
2019-02-14T02:22:36.827Z,60.27
2019-02-14T02:27:39.122Z,64.13
2019-02-14T02:32:41.529Z,58.90
2019-02-14T02:37:43.705Z,62.30
2019-02-14T02:42:46.318Z,58.33
2019-02-14T02:47:48.902Z,56.90
2019-02-14T02:52:52.733Z,63.43
2019-02-14T02:57:54.962Z,59.90
2019-02-14T03:02:57.712Z,56.87
2019-02-14T03:07:59.911Z,56.53
2019-02-14T03:13:05.243Z,72.00
2019-02-14T03:18:07.245Z,56.37
2019-02-14T03:23:09.814Z,57.77
2019-02-14T03:28:12.411Z,64.77
2019-02-14T03:33:14.849Z,64.73
2019-02-14T03:38:17.301Z,60.73
2019-02-14T03:43:21.740Z,63.77
2019-02-14T03:48:24.021Z,60.20
2019-02-14T03:53:26.746Z,60.27
2019-02-14T03:58:29.530Z,55.47
2019-02-14T04:03:34.882Z,61.00
2019-02-14T04:08:37.196Z,58.53
2019-02-14T04:13:39.599Z,62.60
2019-02-14T04:18:45.122Z,64.57
2019-02-14T04:23:47.723Z,61.10
2019-02-14T04:28:50.207Z,57.23
2019-02-14T04:33:57.205Z,59.30
2019-02-14T04:39:02.263Z,51.83
2019-02-14T04:44:04.861Z,62.53
2019-02-14T04:49:07.147Z,62.50
2019-02-14T04:54:09.998Z,59.97
2019-02-14T04:59:15.420Z,62.10
2019-02-14T05:04:18.942Z,66.37
2019-02-14T05:09:21.229Z,59.47
2019-02-14T05:14:26.148Z,66.30
2019-02-14T05:19:28.555Z,71.90
2019-02-14T05:24:31.163Z,69.93
2019-02-14T05:29:33.439Z,67.60
2019-02-14T05:34:36.153Z,59.97
2019-02-14T05:39:42.010Z,61.13
2019-02-14T05:44:44.660Z,72.27
2019-02-14T05:49:48.735Z,68.13
2019-02-14T05:54:51.417Z,72.17
2019-02-14T05:59:53.643Z,68.00
2019-02-14T06:04:55.950Z,69.77
2019-02-14T06:09:58.166Z,73.03
2019-02-14T06:15:02.513Z,74.03
2019-02-14T06:20:07.386Z,69.03
2019-02-14T06:25:09.655Z,65.77
2019-02-14T06:30:12.396Z,68.47
2019-02-14T06:35:16.082Z,67.23
2019-02-14T06:40:22.366Z,62.53
2019-02-14T06:45:24.812Z,68.47
2019-02-14T06:50:34.578Z,70.57
2019-02-14T06:55:34.282Z,64.53
2019-02-14T07:00:36.703Z,64.97
2019-02-14T07:05:38.724Z,60.60
2019-02-14T07:10:42.572Z,60.50
2019-02-14T07:15:47.917Z,61.13
2019-02-14T07:20:52.095Z,58.60
2019-02-14T07:25:57.323Z,59.77
2019-02-14T07:31:01.824Z,62.77
2019-02-14T07:36:04.748Z,57.67
2019-02-14T07:41:07.034Z,57.10
2019-02-14T07:46:11.763Z,54.27
2019-02-14T07:51:14.066Z,57.30
2019-02-14T07:56:16.675Z,59.57
2019-02-14T08:01:19.727Z,56.70
2019-02-14T08:06:22.178Z,59.80
2019-02-14T08:11:25.752Z,54.63
2019-02-14T08:16:30.075Z,51.43
2019-02-14T08:21:32.413Z,47.63
2019-02-14T08:26:36.239Z,46.77
2019-02-14T08:31:38.514Z,46.30
2019-02-14T08:36:43.835Z,47.20
2019-02-14T08:41:45.926Z,49.57
2019-02-14T08:46:48.452Z,45.67
2019-02-14T08:51:55.928Z,40.30
2019-02-14T08:56:58.214Z,41.43
2019-02-14T09:02:02.550Z,36.57
2019-02-14T09:07:04.983Z,34.83
2019-02-14T09:12:09.174Z,40.70
2019-02-14T09:17:11.683Z,41.13
2019-02-14T09:22:13.856Z,38.37
2019-02-14T09:27:16.231Z,38.23
2019-02-14T09:32:22.356Z,36.63
2019-02-14T09:37:25.176Z,37.00
2019-02-14T09:42:29.401Z,36.17
2019-02-14T09:47:35.262Z,33.70
2019-02-14T09:52:37.543Z,37.73
2019-02-14T09:57:39.846Z,33.10
2019-02-14T10:02:41.890Z,40.40
2019-02-14T10:07:44.121Z,39.00
2019-02-14T10:12:46.538Z,39.67
2019-02-14T10:17:50.528Z,34.70
2019-02-14T10:22:52.770Z,34.17
2019-02-14T10:27:59.341Z,37.27
2019-02-14T10:33:01.762Z,33.57
2019-02-14T10:38:09.860Z,34.03
2019-02-14T10:43:12.106Z,36.20
2019-02-14T10:48:14.298Z,31.97
2019-02-14T10:53:19.450Z,33.53
2019-02-14T10:58:22.798Z,34.07
2019-02-14T11:03:25.435Z,35.23
2019-02-14T11:08:31.646Z,34.43
2019-02-14T11:13:31.947Z,32.07
2019-02-14T11:18:34.261Z,27.87
2019-02-14T11:23:36.680Z,29.97
2019-02-14T11:28:38.774Z,28.60
2019-02-14T11:33:43.592Z,32.77
2019-02-14T11:38:45.608Z,32.67
2019-02-14T11:43:50.630Z,31.10
2019-02-14T11:48:55.838Z,33.13
2019-02-14T11:53:58.566Z,33.43
2019-02-14T11:59:01.181Z,32.87
2019-02-14T12:04:03.599Z,28.37
2019-02-14T12:09:06.775Z,26.33
2019-02-14T12:14:10.168Z,31.00
2019-02-14T12:19:17.630Z,29.10
2019-02-14T12:24:22.474Z,27.50
2019-02-14T12:29:24.567Z,26.63
2019-02-14T12:34:26.903Z,30.57
2019-02-14T12:39:29.139Z,28.27
2019-02-14T12:44:35.016Z,33.80
2019-02-14T12:49:37.403Z,25.73
2019-02-14T12:54:39.851Z,23.03
2019-02-14T12:59:42.151Z,20.00
2019-02-14T13:04:44.147Z,25.00
2019-02-14T13:09:46.476Z,23.30
2019-02-14T13:14:48.681Z,29.63
2019-02-14T13:19:50.984Z,26.10
2019-02-14T13:24:53.197Z,24.83
2019-02-14T13:29:55.498Z,25.20
2019-02-14T13:34:58.051Z,26.33
2019-02-14T13:40:00.412Z,25.83
2019-02-14T13:45:03.052Z,25.93
2019-02-14T13:50:05.993Z,25.80
2019-02-14T13:55:08.622Z,23.03
2019-02-14T14:00:14.565Z,23.77
2019-02-14T14:05:18.587Z,22.30
2019-02-14T14:10:22.795Z,23.00
2019-02-14T14:15:25.564Z,27.23
2019-02-14T14:20:29.078Z,22.07
2019-02-14T14:25:31.798Z,22.93
2019-02-14T14:30:36.540Z,21.27
2019-02-14T14:35:40.392Z,22.47
2019-02-14T14:40:42.674Z,23.40
2019-02-14T14:46:08.282Z,27.47
2019-02-14T14:51:12.120Z,25.70
2019-02-14T14:56:14.792Z,19.17
2019-02-14T15:01:17.314Z,26.30
2019-02-14T15:30:51.654Z,20.27
2019-02-14T15:35:57.143Z,18.43
2019-02-14T15:41:01.734Z,18.13
2019-02-14T15:46:09.865Z,20.77
2019-02-14T15:51:15.668Z,23.87
2019-02-14T15:56:18.277Z,21.33
2019-02-14T16:01:20.293Z,25.47
2019-02-14T16:06:22.764Z,21.10
2019-02-14T16:11:25.106Z,21.57
2019-02-14T18:35:59.351Z,21.73
2019-02-14T18:41:14.316Z,24.60
2019-02-14T18:46:29.386Z,30.10
2019-02-14T18:51:44.490Z,24.00
2019-02-14T18:57:00.122Z,27.43
2019-02-14T19:07:17.894Z,18.93
2019-02-14T19:22:52.188Z,22.30
2019-02-14T19:28:00.976Z,25.50
2019-02-14T19:33:13.788Z,23.43
2019-02-14T19:38:29.931Z,27.90
2019-02-14T19:43:39.280Z,25.50
2019-02-14T19:48:48.287Z,28.10
2019-02-14T19:53:57.073Z,27.83
2019-02-14T19:59:07.099Z,32.40
2019-02-14T20:04:20.013Z,30.13
2019-02-14T20:09:36.057Z,30.80
2019-02-14T20:14:44.856Z,24.20
2019-02-14T20:19:55.182Z,35.47
2019-02-14T20:25:04.324Z,29.00
2019-02-14T20:30:13.478Z,23.10
2019-02-14T20:35:23.566Z,27.03
2019-02-14T20:40:38.623Z,21.40
2019-02-14T20:45:47.439Z,30.60
2019-02-14T20:50:58.548Z,25.67
2019-02-14T20:56:09.387Z,27.63
2019-02-14T21:01:18.310Z,23.47
2019-02-14T21:06:27.294Z,25.07
2019-02-14T21:11:35.916Z,21.17
2019-02-14T21:16:44.947Z,20.00
2019-02-14T21:21:54.150Z,21.23
2019-02-14T21:27:03.142Z,25.20
2019-02-14T21:32:12.161Z,22.17
2019-02-14T21:37:27.280Z,21.47
2019-02-14T21:42:35.452Z,18.80
2019-02-14T21:47:43.597Z,19.43
2019-02-14T21:52:52.539Z,27.20
2019-02-14T21:58:04.477Z,21.97
2019-02-14T22:03:12.620Z,22.13
2019-02-14T22:08:24.785Z,23.93
2019-02-14T22:13:38.725Z,22.13
2019-02-14T22:18:53.777Z,17.03
2019-02-14T22:24:08.852Z,21.93
2019-02-14T22:29:18.714Z,21.47
2019-02-14T22:34:27.738Z,18.33
2019-02-14T22:39:44.135Z,20.00
2019-02-14T22:44:53.128Z,19.63
2019-02-14T22:50:02.388Z,21.10
2019-02-14T22:55:14.708Z,18.77
2019-02-14T23:00:52.135Z,20.37
2019-02-14T23:06:01.070Z,21.17
2019-02-14T23:11:10.276Z,18.03
2019-02-14T23:16:18.931Z,18.83
2019-02-14T23:21:34.051Z,22.47
2019-02-14T23:26:48.287Z,18.40
2019-02-14T23:31:57.138Z,24.17
2019-02-14T23:37:12.931Z,17.20
2019-02-14T23:42:28.398Z,20.97
2019-02-14T23:47:37.385Z,22.80
2019-02-14T23:52:46.552Z,18.20
2019-02-14T23:57:55.564Z,21.27
